sensor_id;sensor_type;location;lat;lon;timestamp;pressure;altitude;pressure_sealevel;temperature;humidity
4576;BME280;2300;51.874;8.430;2022-11-20T00:00:17;100484.88;;;-4.83;89.54
4576;BME280;2300;51.874;8.430;2022-11-20T00:02:43;100475.69;;;-4.81;89.55
4576;BME280;2300;51.874;8.430;2022-11-20T00:05:10;100469.91;;;-4.96;89.62
4576;BME280;2300;51.874;8.430;2022-11-20T00:07:36;100476.13;;;-4.85;89.90
4576;BME280;2300;51.874;8.430;2022-11-20T00:10:03;100487.69;;;-4.75;89.39
4576;BME280;2300;51.874;8.430;2022-11-20T00:12:31;100490.66;;;-4.78;89.09
4576;BME280;2300;51.874;8.430;2022-11-20T00:14:57;100479.09;;;-4.88;88.63
4576;BME280;2300;51.874;8.430;2022-11-20T00:17:25;100476.53;;;-4.90;88.56
4576;BME280;2300;51.874;8.430;2022-11-20T00:19:52;100473.84;;;-5.00;88.61
4576;BME280;2300;51.874;8.430;2022-11-20T00:22:18;100473.13;;;-5.02;88.86
4576;BME280;2300;51.874;8.430;2022-11-20T00:24:45;100468.38;;;-4.98;89.27
4576;BME280;2300;51.874;8.430;2022-11-20T00:27:11;100462.16;;;-4.99;89.30
4576;BME280;2300;51.874;8.430;2022-11-20T00:29:38;100447.50;;;-5.04;88.78
4576;BME280;2300;51.874;8.430;2022-11-20T00:32:04;100452.84;;;-5.04;88.86
4576;BME280;2300;51.874;8.430;2022-11-20T00:34:32;100460.16;;;-5.06;89.13
4576;BME280;2300;51.874;8.430;2022-11-20T00:36:59;100464.09;;;-5.10;88.51
4576;BME280;2300;51.874;8.430;2022-11-20T00:39:25;100458.00;;;-5.22;88.12
4576;BME280;2300;51.874;8.430;2022-11-20T00:41:52;100453.88;;;-5.36;87.75
4576;BME280;2300;51.874;8.430;2022-11-20T00:44:19;100456.69;;;-5.37;88.32
4576;BME280;2300;51.874;8.430;2022-11-20T00:46:45;100457.53;;;-5.37;88.28
4576;BME280;2300;51.874;8.430;2022-11-20T00:49:12;100458.25;;;-5.44;88.32
4576;BME280;2300;51.874;8.430;2022-11-20T00:51:40;100468.66;;;-5.41;89.05
4576;BME280;2300;51.874;8.430;2022-11-20T00:54:06;100458.41;;;-5.36;88.81
4576;BME280;2300;51.874;8.430;2022-11-20T00:56:33;100465.88;;;-5.40;88.75
4576;BME280;2300;51.874;8.430;2022-11-20T00:59:00;100462.16;;;-5.48;89.02
4576;BME280;2300;51.874;8.430;2022-11-20T01:01:27;100472.16;;;-5.50;88.80
4576;BME280;2300;51.874;8.430;2022-11-20T01:03:57;100465.38;;;-5.54;88.77
4576;BME280;2300;51.874;8.430;2022-11-20T01:06:25;100458.06;;;-5.52;89.25
4576;BME280;2300;51.874;8.430;2022-11-20T01:08:55;100468.75;;;-5.52;89.79
4576;BME280;2300;51.874;8.430;2022-11-20T01:11:24;100472.41;;;-5.53;89.78
4576;BME280;2300;51.874;8.430;2022-11-20T01:13:52;100475.38;;;-5.56;89.42
4576;BME280;2300;51.874;8.430;2022-11-20T01:16:21;100471.00;;;-5.57;89.04
4576;BME280;2300;51.874;8.430;2022-11-20T01:18:49;100474.03;;;-5.71;89.22
4576;BME280;2300;51.874;8.430;2022-11-20T01:21:18;100480.22;;;-5.71;88.91
4576;BME280;2300;51.874;8.430;2022-11-20T01:23:46;100472.88;;;-5.79;88.61
4576;BME280;2300;51.874;8.430;2022-11-20T01:26:15;100470.34;;;-5.80;88.22
4576;BME280;2300;51.874;8.430;2022-11-20T01:28:42;100470.06;;;-5.77;88.09
4576;BME280;2300;51.874;8.430;2022-11-20T01:31:14;100462.44;;;-5.82;87.88
4576;BME280;2300;51.874;8.430;2022-11-20T01:33:41;100472.28;;;-5.82;87.74
4576;BME280;2300;51.874;8.430;2022-11-20T01:36:09;100480.31;;;-5.82;87.59
4576;BME280;2300;51.874;8.430;2022-11-20T01:38:36;100439.50;;;-6.05;88.37
4576;BME280;2300;51.874;8.430;2022-11-20T01:41:03;100444.00;;;-6.05;88.20
4576;BME280;2300;51.874;8.430;2022-11-20T01:43:31;100468.31;;;-5.88;88.63
4576;BME280;2300;51.874;8.430;2022-11-20T01:46:05;100474.19;;;-5.94;88.55
4576;BME280;2300;51.874;8.430;2022-11-20T01:48:36;100474.63;;;-5.89;88.97
4576;BME280;2300;51.874;8.430;2022-11-20T01:51:07;100464.00;;;-6.00;88.54
4576;BME280;2300;51.874;8.430;2022-11-20T01:53:38;100466.84;;;-6.01;88.78
4576;BME280;2300;51.874;8.430;2022-11-20T01:56:08;100463.16;;;-6.00;88.89
4576;BME280;2300;51.874;8.430;2022-11-20T01:58:41;100431.09;;;-6.21;88.44
4576;BME280;2300;51.874;8.430;2022-11-20T02:01:08;100459.19;;;-6.06;88.63
4576;BME280;2300;51.874;8.430;2022-11-20T02:03:35;100455.13;;;-6.00;88.87
4576;BME280;2300;51.874;8.430;2022-11-20T02:06:06;100452.22;;;-5.97;89.13
4576;BME280;2300;51.874;8.430;2022-11-20T02:08:35;100455.53;;;-6.05;89.07
4576;BME280;2300;51.874;8.430;2022-11-20T02:11:02;100464.88;;;-5.99;89.02
4576;BME280;2300;51.874;8.430;2022-11-20T02:13:29;100454.56;;;-6.04;88.88
4576;BME280;2300;51.874;8.430;2022-11-20T02:16:21;100447.28;;;-6.02;89.15
4576;BME280;2300;51.874;8.430;2022-11-20T02:18:49;100448.25;;;-6.03;89.15
4576;BME280;2300;51.874;8.430;2022-11-20T02:21:24;100446.53;;;-6.04;89.19
4576;BME280;2300;51.874;8.430;2022-11-20T02:24:00;100432.28;;;-6.14;89.31
4576;BME280;2300;51.874;8.430;2022-11-20T02:26:28;100443.63;;;-6.01;89.42
4576;BME280;2300;51.874;8.430;2022-11-20T02:28:55;100435.97;;;-6.05;89.67
4576;BME280;2300;51.874;8.430;2022-11-20T02:31:22;100443.41;;;-6.09;89.18
4576;BME280;2300;51.874;8.430;2022-11-20T02:33:54;100432.28;;;-6.14;89.42
4576;BME280;2300;51.874;8.430;2022-11-20T02:36:21;100433.53;;;-6.18;89.06
4576;BME280;2300;51.874;8.430;2022-11-20T02:38:48;100433.75;;;-6.21;89.03
4576;BME280;2300;51.874;8.430;2022-11-20T02:41:17;100420.69;;;-6.24;89.27
4576;BME280;2300;51.874;8.430;2022-11-20T02:43:43;100421.97;;;-6.18;89.10
4576;BME280;2300;51.874;8.430;2022-11-20T02:46:10;100420.28;;;-6.19;89.13
4576;BME280;2300;51.874;8.430;2022-11-20T02:48:36;100419.59;;;-6.22;89.44
4576;BME280;2300;51.874;8.430;2022-11-20T02:51:03;100409.13;;;-6.25;89.29
4576;BME280;2300;51.874;8.430;2022-11-20T02:53:30;100408.50;;;-6.17;89.07
4576;BME280;2300;51.874;8.430;2022-11-20T02:55:56;100397.91;;;-6.18;89.20
4576;BME280;2300;51.874;8.430;2022-11-20T02:58:24;100400.03;;;-6.22;89.62
4576;BME280;2300;51.874;8.430;2022-11-20T03:00:51;100391.53;;;-6.27;89.35
4576;BME280;2300;51.874;8.430;2022-11-20T03:03:18;100399.16;;;-6.23;89.31
4576;BME280;2300;51.874;8.430;2022-11-20T03:05:44;100398.72;;;-6.28;89.34
4576;BME280;2300;51.874;8.430;2022-11-20T03:08:11;100402.75;;;-6.33;89.45
4576;BME280;2300;51.874;8.430;2022-11-20T03:10:38;100399.13;;;-6.32;89.34
4576;BME280;2300;51.874;8.430;2022-11-20T03:13:04;100402.56;;;-6.41;89.24
4576;BME280;2300;51.874;8.430;2022-11-20T03:15:32;100402.44;;;-6.40;89.00
4576;BME280;2300;51.874;8.430;2022-11-20T03:17:59;100402.56;;;-6.41;88.52
4576;BME280;2300;51.874;8.430;2022-11-20T03:20:25;100403.91;;;-6.47;88.84
4576;BME280;2300;51.874;8.430;2022-11-20T03:22:53;100398.72;;;-6.48;88.57
4576;BME280;2300;51.874;8.430;2022-11-20T03:25:19;100409.94;;;-6.54;88.67
4576;BME280;2300;51.874;8.430;2022-11-20T03:27:46;100393.63;;;-6.51;88.85
4576;BME280;2300;51.874;8.430;2022-11-20T03:30:13;100399.25;;;-6.54;88.78
4576;BME280;2300;51.874;8.430;2022-11-20T03:32:41;100388.44;;;-6.53;88.81
4576;BME280;2300;51.874;8.430;2022-11-20T03:35:08;100393.78;;;-6.53;89.27
4576;BME280;2300;51.874;8.430;2022-11-20T03:37:35;100386.13;;;-6.57;89.17
4576;BME280;2300;51.874;8.430;2022-11-20T03:40:01;100384.56;;;-6.60;89.06
4576;BME280;2300;51.874;8.430;2022-11-20T03:42:28;100388.78;;;-6.57;88.95
4576;BME280;2300;51.874;8.430;2022-11-20T03:45:13;100385.66;;;-6.63;88.78
4576;BME280;2300;51.874;8.430;2022-11-20T03:47:41;100397.81;;;-6.58;88.64
4576;BME280;2300;51.874;8.430;2022-11-20T03:50:09;100401.47;;;-6.59;88.44
4576;BME280;2300;51.874;8.430;2022-11-20T03:52:37;100404.25;;;-6.61;88.75
4576;BME280;2300;51.874;8.430;2022-11-20T03:55:04;100404.38;;;-6.63;88.70
4576;BME280;2300;51.874;8.430;2022-11-20T03:57:31;100393.22;;;-6.68;88.17
4576;BME280;2300;51.874;8.430;2022-11-20T03:59:57;100392.13;;;-6.65;88.49
4576;BME280;2300;51.874;8.430;2022-11-20T04:02:24;100385.38;;;-6.69;88.99
4576;BME280;2300;51.874;8.430;2022-11-20T04:04:51;100400.72;;;-6.61;89.08
4576;BME280;2300;51.874;8.430;2022-11-20T04:07:18;100397.34;;;-6.63;88.52
4576;BME280;2300;51.874;8.430;2022-11-20T04:09:44;100396.63;;;-6.66;88.38
4576;BME280;2300;51.874;8.430;2022-11-20T04:12:11;100387.88;;;-6.68;88.17
4576;BME280;2300;51.874;8.430;2022-11-20T04:14:37;100396.16;;;-6.71;88.02
4576;BME280;2300;51.874;8.430;2022-11-20T04:17:04;100393.78;;;-6.74;87.77
4576;BME280;2300;51.874;8.430;2022-11-20T04:19:30;100371.38;;;-6.93;87.75
4576;BME280;2300;51.874;8.430;2022-11-20T04:21:58;100406.38;;;-6.76;87.66
4576;BME280;2300;51.874;8.430;2022-11-20T04:24:26;100404.97;;;-6.80;87.50
4576;BME280;2300;51.874;8.430;2022-11-20T04:26:52;100404.97;;;-6.80;87.64
4576;BME280;2300;51.874;8.430;2022-11-20T04:29:19;100401.69;;;-6.83;87.93
4576;BME280;2300;51.874;8.430;2022-11-20T04:31:45;100408.47;;;-6.79;88.44
4576;BME280;2300;51.874;8.430;2022-11-20T04:34:12;100408.59;;;-6.81;88.54
4576;BME280;2300;51.874;8.430;2022-11-20T04:36:39;100401.91;;;-6.75;88.80
4576;BME280;2300;51.874;8.430;2022-11-20T04:39:12;100399.00;;;-6.83;89.01
4576;BME280;2300;51.874;8.430;2022-11-20T04:41:39;100401.38;;;-6.69;89.29
4576;BME280;2300;51.874;8.430;2022-11-20T04:44:05;100401.38;;;-6.69;89.51
4576;BME280;2300;51.874;8.430;2022-11-20T04:46:34;100401.63;;;-6.72;89.62
4576;BME280;2300;51.874;8.430;2022-11-20T04:49:01;100390.81;;;-6.71;90.15
4576;BME280;2300;51.874;8.430;2022-11-20T04:51:28;100387.75;;;-6.66;89.97
4576;BME280;2300;51.874;8.430;2022-11-20T04:53:55;100387.06;;;-6.68;89.76
4576;BME280;2300;51.874;8.430;2022-11-20T04:56:23;100389.13;;;-6.72;89.96
4576;BME280;2300;51.874;8.430;2022-11-20T04:58:50;100383.78;;;-6.72;89.76
4576;BME280;2300;51.874;8.430;2022-11-20T05:01:18;100383.09;;;-6.74;89.68
4576;BME280;2300;51.874;8.430;2022-11-20T05:03:45;100390.94;;;-6.72;89.55
4576;BME280;2300;51.874;8.430;2022-11-20T05:06:13;100368.47;;;-6.90;89.17
4576;BME280;2300;51.874;8.430;2022-11-20T05:08:40;100395.31;;;-6.71;89.34
4576;BME280;2300;51.874;8.430;2022-11-20T05:11:08;100399.09;;;-6.74;89.01
4576;BME280;2300;51.874;8.430;2022-11-20T05:13:36;100402.13;;;-6.78;88.68
4576;BME280;2300;51.874;8.430;2022-11-20T05:16:04;100384.88;;;-6.95;88.58
4576;BME280;2300;51.874;8.430;2022-11-20T05:18:31;100405.19;;;-6.83;88.31
4576;BME280;2300;51.874;8.430;2022-11-20T05:20:59;100389.09;;;-6.92;88.54
4576;BME280;2300;51.874;8.430;2022-11-20T05:23:25;100402.34;;;-6.91;88.55
4576;BME280;2300;51.874;8.430;2022-11-20T05:25:52;100398.69;;;-6.90;88.74
4576;BME280;2300;51.874;8.430;2022-11-20T05:28:19;100390.81;;;-6.91;88.28
4576;BME280;2300;51.874;8.430;2022-11-20T05:30:47;100391.88;;;-6.94;87.92
4576;BME280;2300;51.874;8.430;2022-11-20T05:33:14;100391.19;;;-6.96;88.16
4576;BME280;2300;51.874;8.430;2022-11-20T05:35:41;100385.84;;;-6.96;88.20
4576;BME280;2300;51.874;8.430;2022-11-20T05:38:07;100392.88;;;-6.95;88.15
4576;BME280;2300;51.874;8.430;2022-11-20T05:40:34;100390.47;;;-6.98;87.88
4576;BME280;2300;51.874;8.430;2022-11-20T05:43:01;100391.78;;;-6.92;88.16
4576;BME280;2300;51.874;8.430;2022-11-20T05:45:27;100388.53;;;-6.96;88.19
4576;BME280;2300;51.874;8.430;2022-11-20T05:47:57;100392.50;;;-6.90;88.77
4576;BME280;2300;51.874;8.430;2022-11-20T05:50:24;100392.97;;;-6.85;89.09
4576;BME280;2300;51.874;8.430;2022-11-20T05:52:50;100388.59;;;-6.86;89.12
4576;BME280;2300;51.874;8.430;2022-11-20T05:55:17;100387.31;;;-6.71;89.14
4576;BME280;2300;51.874;8.430;2022-11-20T05:57:43;100392.00;;;-6.63;89.31
4576;BME280;2300;51.874;8.430;2022-11-20T06:00:11;100391.69;;;-6.49;90.15
4576;BME280;2300;51.874;8.430;2022-11-20T06:02:37;100388.78;;;-6.37;89.58
4576;BME280;2300;51.874;8.430;2022-11-20T06:05:06;100386.44;;;-6.30;89.97
4576;BME280;2300;51.874;8.430;2022-11-20T06:07:33;100389.78;;;-6.17;89.59
4576;BME280;2300;51.874;8.430;2022-11-20T06:09:59;100386.09;;;-6.16;89.58
4576;BME280;2300;51.874;8.430;2022-11-20T06:12:26;100386.00;;;-6.05;89.29
4576;BME280;2300;51.874;8.430;2022-11-20T06:14:52;100374.66;;;-5.97;89.09
4576;BME280;2300;51.874;8.430;2022-11-20T06:17:19;100370.06;;;-5.86;89.21
4576;BME280;2300;51.874;8.430;2022-11-20T06:19:45;100386.72;;;-5.72;89.11
4576;BME280;2300;51.874;8.430;2022-11-20T06:22:13;100386.44;;;-5.69;89.35
4576;BME280;2300;51.874;8.430;2022-11-20T06:24:40;100385.91;;;-5.63;89.06
4576;BME280;2300;51.874;8.430;2022-11-20T06:27:06;100384.50;;;-5.58;89.21
4576;BME280;2300;51.874;8.430;2022-11-20T06:29:33;100388.59;;;-5.54;88.54
4576;BME280;2300;51.874;8.430;2022-11-20T06:32:00;100392.31;;;-5.45;88.82
4576;BME280;2300;51.874;8.430;2022-11-20T06:34:26;100396.81;;;-5.46;88.77
4576;BME280;2300;51.874;8.430;2022-11-20T06:36:53;100394.56;;;-5.31;88.98
4576;BME280;2300;51.874;8.430;2022-11-20T06:39:21;100393.84;;;-5.33;87.99
4576;BME280;2300;51.874;8.430;2022-11-20T06:41:47;100401.94;;;-5.14;88.09
4576;BME280;2300;51.874;8.430;2022-11-20T06:44:14;100390.09;;;-5.21;87.60
4576;BME280;2300;51.874;8.430;2022-11-20T06:46:40;100378.38;;;-5.29;87.03
4576;BME280;2300;51.874;8.430;2022-11-20T06:49:07;100388.56;;;-5.14;87.91
4576;BME280;2300;51.874;8.430;2022-11-20T06:51:33;100389.84;;;-5.08;87.93
4576;BME280;2300;51.874;8.430;2022-11-20T06:54:00;100389.84;;;-5.08;87.64
4576;BME280;2300;51.874;8.430;2022-11-20T06:56:28;100378.09;;;-5.07;87.71
4576;BME280;2300;51.874;8.430;2022-11-20T06:58:54;100394.22;;;-4.98;88.29
4576;BME280;2300;51.874;8.430;2022-11-20T07:01:21;100392.22;;;-5.05;87.43
4576;BME280;2300;51.874;8.430;2022-11-20T07:03:48;100393.50;;;-5.00;87.42
4576;BME280;2300;51.874;8.430;2022-11-20T07:06:15;100393.91;;;-5.04;87.09
4576;BME280;2300;51.874;8.430;2022-11-20T07:08:41;100406.59;;;-4.97;87.41
4576;BME280;2300;51.874;8.430;2022-11-20T07:11:11;100411.41;;;-4.90;88.09
4576;BME280;2300;51.874;8.430;2022-11-20T07:13:39;100405.91;;;-4.89;87.96
4576;BME280;2300;51.874;8.430;2022-11-20T07:16:07;100392.81;;;-4.82;88.31
4576;BME280;2300;51.874;8.430;2022-11-20T07:18:34;100406.63;;;-4.68;88.14
4576;BME280;2300;51.874;8.430;2022-11-20T07:21:01;100408.31;;;-4.57;87.72
4576;BME280;2300;51.874;8.430;2022-11-20T07:23:28;100409.41;;;-4.60;86.89
4576;BME280;2300;51.874;8.430;2022-11-20T07:25:54;100414.22;;;-4.54;86.82
4576;BME280;2300;51.874;8.430;2022-11-20T07:28:21;100422.13;;;-4.42;87.09
4576;BME280;2300;51.874;8.430;2022-11-20T07:30:51;100418.03;;;-4.46;86.73
4576;BME280;2300;51.874;8.430;2022-11-20T07:33:18;100417.31;;;-4.48;87.02
4576;BME280;2300;51.874;8.430;2022-11-20T07:35:44;100420.69;;;-4.37;86.71
4576;BME280;2300;51.874;8.430;2022-11-20T07:38:11;100417.88;;;-4.26;86.27
4576;BME280;2300;51.874;8.430;2022-11-20T07:40:37;100416.47;;;-4.30;86.37
4576;BME280;2300;51.874;8.430;2022-11-20T07:43:04;100407.66;;;-4.13;86.54
4576;BME280;2300;51.874;8.430;2022-11-20T07:45:30;100427.41;;;-4.14;86.13
4576;BME280;2300;51.874;8.430;2022-11-20T07:47:58;100424.31;;;-3.99;86.32
4576;BME280;2300;51.874;8.430;2022-11-20T07:50:25;100428.78;;;-3.90;85.93
4576;BME280;2300;51.874;8.430;2022-11-20T07:52:51;100419.19;;;-3.93;85.74
4576;BME280;2300;51.874;8.430;2022-11-20T07:55:18;100428.66;;;-3.98;85.02
4576;BME280;2300;51.874;8.430;2022-11-20T07:57:44;100420.59;;;-3.98;85.00
4576;BME280;2300;51.874;8.430;2022-11-20T08:00:12;100408.84;;;-3.88;85.80
4576;BME280;2300;51.874;8.430;2022-11-20T08:02:39;100418.03;;;-3.81;85.50
4576;BME280;2300;51.874;8.430;2022-11-20T08:05:08;100419.69;;;-3.70;86.62
4576;BME280;2300;51.874;8.430;2022-11-20T08:07:36;100422.75;;;-3.65;85.55
4576;BME280;2300;51.874;8.430;2022-11-20T08:10:04;100428.84;;;-3.63;85.23
4576;BME280;2300;51.874;8.430;2022-11-20T08:12:30;100422.63;;;-3.63;85.30
4576;BME280;2300;51.874;8.430;2022-11-20T08:15:14;100423.47;;;-3.63;86.61
4576;BME280;2300;51.874;8.430;2022-11-20T08:17:41;100419.31;;;-3.48;86.76
4576;BME280;2300;51.874;8.430;2022-11-20T08:20:09;100413.50;;;-3.26;86.87
4576;BME280;2300;51.874;8.430;2022-11-20T08:22:36;100410.63;;;-3.14;86.09
4576;BME280;2300;51.874;8.430;2022-11-20T08:25:07;100397.88;;;-3.12;85.87
4576;BME280;2300;51.874;8.430;2022-11-20T08:27:33;100407.31;;;-3.08;85.39
4576;BME280;2300;51.874;8.430;2022-11-20T08:30:00;100403.44;;;-2.96;85.43
4576;BME280;2300;51.874;8.430;2022-11-20T08:32:26;100410.41;;;-3.03;85.12
4576;BME280;2300;51.874;8.430;2022-11-20T08:34:53;100408.22;;;-2.90;85.35
4576;BME280;2300;51.874;8.430;2022-11-20T08:37:21;100413.59;;;-2.90;85.02
4576;BME280;2300;51.874;8.430;2022-11-20T08:39:47;100403.88;;;-2.83;85.45
4576;BME280;2300;51.874;8.430;2022-11-20T08:42:14;100402.19;;;-2.84;85.38
4576;BME280;2300;51.874;8.430;2022-11-20T08:44:40;100409.75;;;-2.70;85.09
4576;BME280;2300;51.874;8.430;2022-11-20T08:47:08;100421.78;;;-2.56;85.66
4576;BME280;2300;51.874;8.430;2022-11-20T08:49:34;100424.25;;;-2.45;85.41
4576;BME280;2300;51.874;8.430;2022-11-20T08:52:01;100423.41;;;-2.46;85.26
4576;BME280;2300;51.874;8.430;2022-11-20T08:54:29;100399.50;;;-2.49;85.17
4576;BME280;2300;51.874;8.430;2022-11-20T08:56:55;100402.25;;;-2.58;85.56
4576;BME280;2300;51.874;8.430;2022-11-20T08:59:22;100414.09;;;-2.51;85.77
4576;BME280;2300;51.874;8.430;2022-11-20T09:01:48;100426.22;;;-2.29;86.19
4576;BME280;2300;51.874;8.430;2022-11-20T09:04:15;100425.53;;;-2.31;86.25
4576;BME280;2300;51.874;8.430;2022-11-20T09:06:42;100433.13;;;-2.27;86.57
4576;BME280;2300;51.874;8.430;2022-11-20T09:09:08;100416.59;;;-2.14;86.87
4576;BME280;2300;51.874;8.430;2022-11-20T09:11:36;100415.97;;;-2.08;87.33
4576;BME280;2300;51.874;8.430;2022-11-20T09:14:03;100413.75;;;-1.87;87.14
4576;BME280;2300;51.874;8.430;2022-11-20T09:16:30;100411.50;;;-1.66;87.13
4576;BME280;2300;51.874;8.430;2022-11-20T09:18:56;100407.94;;;-1.32;87.17
4576;BME280;2300;51.874;8.430;2022-11-20T09:21:23;100367.50;;;-1.40;87.39
4576;BME280;2300;51.874;8.430;2022-11-20T09:23:49;100406.41;;;-0.85;86.98
4576;BME280;2300;51.874;8.430;2022-11-20T09:26:16;100396.81;;;-0.55;86.39
4576;BME280;2300;51.874;8.430;2022-11-20T09:28:45;100375.59;;;-0.58;86.33
4576;BME280;2300;51.874;8.430;2022-11-20T09:31:19;100387.19;;;-0.25;86.44
4576;BME280;2300;51.874;8.430;2022-11-20T09:33:47;100383.84;;;-0.11;86.09
4576;BME280;2300;51.874;8.430;2022-11-20T09:36:14;100382.63;;;-0.08;85.55
4576;BME280;2300;51.874;8.430;2022-11-20T09:38:42;100390.03;;;0.06;85.33
4576;BME280;2300;51.874;8.430;2022-11-20T09:41:23;100384.38;;;0.32;84.95
4576;BME280;2300;51.874;8.430;2022-11-20T09:44:02;100371.44;;;0.11;84.84
4576;BME280;2300;51.874;8.430;2022-11-20T09:46:40;100377.47;;;0.29;84.63
4576;BME280;2300;51.874;8.430;2022-11-20T09:49:23;100377.44;;;0.37;83.66
4576;BME280;2300;51.874;8.430;2022-11-20T09:51:56;100388.72;;;0.57;84.13
4576;BME280;2300;51.874;8.430;2022-11-20T09:54:27;100388.75;;;0.80;83.38
4576;BME280;2300;51.874;8.430;2022-11-20T09:56:58;100378.03;;;0.63;82.71
4576;BME280;2300;51.874;8.430;2022-11-20T09:59:36;100375.69;;;0.91;82.59
4576;BME280;2300;51.874;8.430;2022-11-20T10:02:15;100380.44;;;0.89;82.05
4576;BME280;2300;51.874;8.430;2022-11-20T10:04:45;100367.59;;;0.83;81.85
4576;BME280;2300;51.874;8.430;2022-11-20T10:07:17;100380.31;;;1.14;82.17
4576;BME280;2300;51.874;8.430;2022-11-20T10:09:50;100372.19;;;1.14;81.94
4576;BME280;2300;51.874;8.430;2022-11-20T10:12:24;100365.69;;;1.23;81.39
4576;BME280;2300;51.874;8.430;2022-11-20T10:15:06;100342.16;;;1.00;80.67
4576;BME280;2300;51.874;8.430;2022-11-20T10:17:55;100357.63;;;1.37;80.98
4576;BME280;2300;51.874;8.430;2022-11-20T10:20:30;100370.69;;;1.34;81.13
4576;BME280;2300;51.874;8.430;2022-11-20T10:23:12;100369.34;;;1.30;81.08
4576;BME280;2300;51.874;8.430;2022-11-20T10:25:49;100355.31;;;1.34;80.51
4576;BME280;2300;51.874;8.430;2022-11-20T10:28:28;100353.81;;;1.46;80.83
4576;BME280;2300;51.874;8.430;2022-11-20T10:31:03;100350.34;;;1.61;80.09
4576;BME280;2300;51.874;8.430;2022-11-20T10:33:34;100338.69;;;1.60;79.94
4576;BME280;2300;51.874;8.430;2022-11-20T10:36:10;100348.84;;;1.58;80.39
4576;BME280;2300;51.874;8.430;2022-11-20T10:38:43;100341.13;;;1.70;79.98
4576;BME280;2300;51.874;8.430;2022-11-20T10:41:17;100336.44;;;1.41;80.35
4576;BME280;2300;51.874;8.430;2022-11-20T10:43:59;100341.94;;;1.33;80.31
4576;BME280;2300;51.874;8.430;2022-11-20T10:46:34;100342.97;;;1.55;80.32
4576;BME280;2300;51.874;8.430;2022-11-20T10:49:05;100338.00;;;1.58;80.19
4576;BME280;2300;51.874;8.430;2022-11-20T10:51:48;100327.38;;;1.71;80.45
4576;BME280;2300;51.874;8.430;2022-11-20T10:54:27;100310.56;;;1.61;79.80
4576;BME280;2300;51.874;8.430;2022-11-20T10:57:02;100324.28;;;1.97;79.58
4576;BME280;2300;51.874;8.430;2022-11-20T10:59:45;100310.91;;;1.96;80.12
4576;BME280;2300;51.874;8.430;2022-11-20T11:02:23;100324.72;;;1.86;80.34
4576;BME280;2300;51.874;8.430;2022-11-20T11:04:51;100326.88;;;2.05;79.96
4576;BME280;2300;51.874;8.430;2022-11-20T11:07:22;100313.63;;;2.10;79.67
4576;BME280;2300;51.874;8.430;2022-11-20T11:09:53;100309.31;;;1.86;79.44
4576;BME280;2300;51.874;8.430;2022-11-20T11:12:20;100299.28;;;1.72;79.27
4576;BME280;2300;51.874;8.430;2022-11-20T11:14:49;100294.81;;;1.79;79.71
4576;BME280;2300;51.874;8.430;2022-11-20T11:17:27;100283.44;;;1.69;79.64
4576;BME280;2300;51.874;8.430;2022-11-20T11:19:59;100292.94;;;1.65;79.58
4576;BME280;2300;51.874;8.430;2022-11-20T11:22:28;100292.44;;;1.62;80.77
4576;BME280;2300;51.874;8.430;2022-11-20T11:24:55;100289.00;;;1.53;81.11
4576;BME280;2300;51.874;8.430;2022-11-20T11:27:21;100287.59;;;1.57;81.39
4576;BME280;2300;51.874;8.430;2022-11-20T11:29:48;100280.44;;;1.64;81.28
4576;BME280;2300;51.874;8.430;2022-11-20T11:32:17;100284.03;;;1.57;81.74
4576;BME280;2300;51.874;8.430;2022-11-20T11:34:58;100282.34;;;1.41;81.87
4576;BME280;2300;51.874;8.430;2022-11-20T11:37:31;100276.91;;;1.41;82.25
4576;BME280;2300;51.874;8.430;2022-11-20T11:39:59;100274.72;;;1.44;81.96
4576;BME280;2300;51.874;8.430;2022-11-20T11:42:27;100265.53;;;1.45;82.41
4576;BME280;2300;51.874;8.430;2022-11-20T11:44:56;100265.03;;;1.50;82.31
4576;BME280;2300;51.874;8.430;2022-11-20T11:47:34;100254.09;;;1.58;81.67
4576;BME280;2300;51.874;8.430;2022-11-20T11:50:14;100250.25;;;1.53;81.85
4576;BME280;2300;51.874;8.430;2022-11-20T11:52:44;100252.63;;;1.56;82.07
4576;BME280;2300;51.874;8.430;2022-11-20T11:55:15;100247.91;;;1.35;81.63
4576;BME280;2300;51.874;8.430;2022-11-20T11:57:48;100261.34;;;1.43;82.08
4576;BME280;2300;51.874;8.430;2022-11-20T12:00:20;100260.91;;;1.39;81.67
4576;BME280;2300;51.874;8.430;2022-11-20T12:02:54;100258.34;;;1.38;81.73
4576;BME280;2300;51.874;8.430;2022-11-20T12:05:27;100256.31;;;1.40;81.93
4576;BME280;2300;51.874;8.430;2022-11-20T12:08:02;100257.06;;;1.34;82.08
4576;BME280;2300;51.874;8.430;2022-11-20T12:10:40;100248.00;;;1.41;81.94
4576;BME280;2300;51.874;8.430;2022-11-20T12:13:18;100240.38;;;1.45;82.73
4576;BME280;2300;51.874;8.430;2022-11-20T12:15:48;100247.53;;;1.38;82.83
4576;BME280;2300;51.874;8.430;2022-11-20T12:18:16;100230.28;;;1.39;82.58
4576;BME280;2300;51.874;8.430;2022-11-20T12:20:50;100227.94;;;1.50;82.63
4576;BME280;2300;51.874;8.430;2022-11-20T12:23:27;100230.84;;;1.49;82.73
4576;BME280;2300;51.874;8.430;2022-11-20T12:26:01;100221.97;;;1.40;82.58
4576;BME280;2300;51.874;8.430;2022-11-20T12:28:40;100233.56;;;1.49;83.20
4576;BME280;2300;51.874;8.430;2022-11-20T12:31:41;100230.19;;;1.47;83.04
4576;BME280;2300;51.874;8.430;2022-11-20T12:34:27;100234.97;;;1.74;83.09
4576;BME280;2300;51.874;8.430;2022-11-20T12:37:07;100227.41;;;1.99;82.82
4576;BME280;2300;51.874;8.430;2022-11-20T12:39:35;100223.09;;;2.05;82.19
4576;BME280;2300;51.874;8.430;2022-11-20T12:42:20;100224.31;;;1.87;81.55
4576;BME280;2300;51.874;8.430;2022-11-20T12:48:19;100194.28;;;1.53;83.15
4576;BME280;2300;51.874;8.430;2022-11-20T12:51:00;100202.78;;;1.50;83.09
4576;BME280;2300;51.874;8.430;2022-11-20T12:53:36;100210.06;;;1.64;83.32
4576;BME280;2300;51.874;8.430;2022-11-20T12:56:18;100209.78;;;1.74;83.34
4576;BME280;2300;51.874;8.430;2022-11-20T12:58:55;100199.19;;;1.93;83.67
4576;BME280;2300;51.874;8.430;2022-11-20T13:01:32;100201.22;;;2.21;82.67
4576;BME280;2300;51.874;8.430;2022-11-20T13:04:16;100196.88;;;2.41;82.40
4576;BME280;2300;51.874;8.430;2022-11-20T13:06:45;100202.91;;;2.58;81.19
4576;BME280;2300;51.874;8.430;2022-11-20T13:09:15;100194.19;;;2.62;80.59
4576;BME280;2300;51.874;8.430;2022-11-20T13:11:47;100187.00;;;2.55;80.75
4576;BME280;2300;51.874;8.430;2022-11-20T13:14:26;100187.06;;;2.61;80.50
4576;BME280;2300;51.874;8.430;2022-11-20T13:17:02;100195.63;;;2.58;79.49
4576;BME280;2300;51.874;8.430;2022-11-20T13:19:32;100183.94;;;2.58;79.47
4576;BME280;2300;51.874;8.430;2022-11-20T13:21:59;100178.09;;;2.61;79.35
4576;BME280;2300;51.874;8.430;2022-11-20T13:24:29;100184.78;;;2.80;79.30
4576;BME280;2300;51.874;8.430;2022-11-20T13:27:00;100170.88;;;2.68;78.38
4576;BME280;2300;51.874;8.430;2022-11-20T13:29:28;100180.69;;;2.69;78.72